Time;durP1;ratioP1;P1;durP2;ratioP2;P2;SDS_P1;SDS_P2;PMS_P1;PMS_P2;Temp;Humidity;BMP_temperature;BMP_pressure;BME280_temperature;BME280_humidity;BME280_pressure;Samples;Min_cycle;Max_cycle;Signal;HPM_P1;HPM_P2
2022/07/09 00:01:47;;;;;;;;;;;25.40;89.20;;;;;;5065392;28;19920;-51
2022/07/09 00:04:14;;;;;;;;;;;25.40;89.20;;;;;;5050104;28;19925;-58
2022/07/09 00:06:41;;;;;;;;;;;25.40;89.20;;;;;;5034882;28;19924;-54
2022/07/09 00:09:08;;;;;;;;;;;25.40;89.20;;;;;;5050803;28;19931;-56
2022/07/09 00:11:35;;;;;;;;;;;25.30;89.10;;;;;;5055786;28;19928;-55
2022/07/09 00:14:03;;;;;;;;;;;25.40;89.20;;;;;;5050842;28;19924;-54
2022/07/09 00:16:30;;;;;;;;;;;25.40;89.20;;;;;;5060806;28;19923;-52
2022/07/09 00:18:57;;;;;;;;;;;25.30;89.10;;;;;;5052287;28;19931;-54
2022/07/09 00:21:24;;;;;;;;;;;25.40;89.20;;;;;;5052494;28;20292;-51
2022/07/09 00:23:51;;;;;;;;;;;25.30;89.10;;;;;;5055634;28;19931;-52
2022/07/09 00:26:18;;;;;;;;;;;25.30;89.20;;;;;;5059189;28;19920;-52
2022/07/09 00:28:46;;;;;;;;;;;25.30;89.20;;;;;;5052427;28;19924;-53
2022/07/09 00:31:13;;;;;;;;;;;25.30;89.20;;;;;;5058336;28;19951;-52
2022/07/09 00:33:40;;;;;;;;;;;25.30;89.20;;;;;;5054880;28;19924;-51
2022/07/09 00:36:07;;;;;;;;;;;25.30;89.20;;;;;;5051088;28;19924;-51
2022/07/09 00:38:34;;;;;;;;;;;25.30;89.20;;;;;;5065823;28;19925;-55
2022/07/09 00:41:03;;;;;;;;;;;25.30;89.20;;;;;;5052169;28;20307;-53
2022/07/09 00:43:30;;;;;;;;;;;25.30;89.20;;;;;;5057433;28;19927;-56
2022/07/09 00:45:58;;;;;;;;;;;25.30;89.30;;;;;;5061557;28;19928;-56
2022/07/09 00:48:25;;;;;;;;;;;25.30;89.30;;;;;;5050370;28;19925;-56
2022/07/09 00:50:53;;;;;;;;;;;25.30;89.20;;;;;;5049694;28;19929;-50
2022/07/09 00:53:22;;;;;;;;;;;25.30;89.30;;;;;;5049278;28;19931;-56
2022/07/09 00:55:49;;;;;;;;;;;25.20;89.20;;;;;;5049947;28;19925;-52
2022/07/09 00:58:17;;;;;;;;;;;25.30;89.30;;;;;;5049753;28;20577;-53
2022/07/09 01:00:44;;;;;;;;;;;25.20;89.20;;;;;;5051340;28;19921;-57
2022/07/09 01:03:12;;;;;;;;;;;25.20;89.20;;;;;;5048905;28;19921;-55
2022/07/09 01:05:40;;;;;;;;;;;25.20;89.20;;;;;;5049811;28;19928;-52
2022/07/09 01:08:07;;;;;;;;;;;25.20;89.20;;;;;;5049266;28;19931;-54
2022/07/09 01:10:35;;;;;;;;;;;25.30;89.30;;;;;;5050381;28;19920;-54
2022/07/09 01:13:03;;;;;;;;;;;25.20;89.20;;;;;;5058695;28;20641;-54
2022/07/09 01:15:31;;;;;;;;;;;25.20;89.20;;;;;;5053942;28;20681;-54
2022/07/09 01:17:58;;;;;;;;;;;25.30;89.20;;;;;;5057765;28;19924;-52
2022/07/09 01:20:26;;;;;;;;;;;25.20;89.20;;;;;;5051146;28;19921;-56
2022/07/09 01:22:55;;;;;;;;;;;25.20;89.20;;;;;;5049122;28;19928;-53
2022/07/09 01:25:31;;;;;;;;;;;25.20;89.20;;;;;;5048247;28;20020;-52
2022/07/09 01:27:58;;;;;;;;;;;25.20;89.20;;;;;;5049375;28;19925;-55
2022/07/09 01:30:26;;;;;;;;;;;25.20;89.20;;;;;;5049126;28;19935;-55
2022/07/09 01:32:54;;;;;;;;;;;25.20;89.20;;;;;;5048624;28;19929;-57
2022/07/09 01:35:21;;;;;;;;;;;25.20;89.30;;;;;;5050207;28;20367;-54
2022/07/09 01:37:48;;;;;;;;;;;25.20;89.30;;;;;;5049431;28;19928;-55
2022/07/09 01:40:16;;;;;;;;;;;25.20;89.20;;;;;;5071865;28;19990;-54
2022/07/09 01:42:43;;;;;;;;;;;25.20;89.30;;;;;;5054445;28;19927;-56
2022/07/09 01:45:10;;;;;;;;;;;25.20;89.30;;;;;;5048722;28;19932;-55
2022/07/09 01:47:37;;;;;;;;;;;25.20;89.30;;;;;;5047018;28;19925;-56
2022/07/09 01:50:05;;;;;;;;;;;25.20;89.30;;;;;;5030501;28;20766;-55
2022/07/09 01:52:32;;;;;;;;;;;25.20;89.30;;;;;;5062561;28;19920;-54
2022/07/09 01:55:00;;;;;;;;;;;25.20;89.30;;;;;;5054270;28;20600;-56
2022/07/09 01:57:27;;;;;;;;;;;25.20;89.30;;;;;;5048689;28;20403;-55
2022/07/09 01:59:54;;;;;;;;;;;25.20;89.40;;;;;;5056958;28;19921;-55
2022/07/09 02:02:21;;;;;;;;;;;25.20;89.40;;;;;;5047407;28;19921;-53
2022/07/09 02:04:48;;;;;;;;;;;25.20;89.40;;;;;;5047200;28;19920;-53
2022/07/09 02:07:16;;;;;;;;;;;25.20;89.30;;;;;;5055949;28;19987;-56
2022/07/09 02:09:43;;;;;;;;;;;25.20;89.40;;;;;;5048433;28;19924;-54
2022/07/09 02:12:10;;;;;;;;;;;25.20;89.40;;;;;;5077716;28;19927;-54
2022/07/09 02:14:38;;;;;;;;;;;25.20;89.40;;;;;;5065846;28;19924;-53
2022/07/09 02:17:05;;;;;;;;;;;25.20;89.40;;;;;;5053997;28;20438;-54
2022/07/09 02:19:32;;;;;;;;;;;25.20;89.40;;;;;;5054304;28;19928;-54
2022/07/09 02:22:00;;;;;;;;;;;25.20;89.40;;;;;;5054901;28;19921;-54
2022/07/09 02:24:28;;;;;;;;;;;25.10;89.30;;;;;;5049075;28;19916;-57
2022/07/09 02:26:55;;;;;;;;;;;25.20;89.40;;;;;;5049737;28;19944;-53
2022/07/09 02:29:22;;;;;;;;;;;25.10;89.40;;;;;;5046709;28;19925;-50
2022/07/09 02:31:49;;;;;;;;;;;25.10;89.30;;;;;;5049058;28;19920;-55
2022/07/09 02:34:16;;;;;;;;;;;25.10;89.30;;;;;;5048135;28;20388;-51
2022/07/09 02:36:44;;;;;;;;;;;25.10;89.40;;;;;;5052415;28;20112;-53
2022/07/09 02:39:11;;;;;;;;;;;25.10;89.40;;;;;;5047120;28;19921;-54
2022/07/09 02:41:38;;;;;;;;;;;25.10;89.40;;;;;;5054459;28;19924;-52
2022/07/09 02:44:05;;;;;;;;;;;25.10;89.40;;;;;;5047428;28;19920;-54
2022/07/09 02:46:32;;;;;;;;;;;25.10;89.40;;;;;;5047793;28;19928;-52
2022/07/09 02:49:00;;;;;;;;;;;25.10;89.40;;;;;;5063389;28;19921;-59
2022/07/09 02:51:27;;;;;;;;;;;25.10;89.40;;;;;;5046120;28;19921;-57
2022/07/09 02:53:54;;;;;;;;;;;25.10;89.40;;;;;;5047473;28;19925;-57
2022/07/09 02:56:21;;;;;;;;;;;25.10;89.40;;;;;;5049202;28;19920;-57
2022/07/09 02:58:48;;;;;;;;;;;25.10;89.40;;;;;;5063056;28;19935;-57
2022/07/09 03:01:15;;;;;;;;;;;25.00;89.40;;;;;;5049012;28;19929;-55
2022/07/09 03:03:43;;;;;;;;;;;25.10;89.50;;;;;;5065349;28;20710;-55
2022/07/09 03:06:10;;;;;;;;;;;25.10;89.50;;;;;;5047365;28;19925;-55
2022/07/09 03:08:37;;;;;;;;;;;25.00;89.40;;;;;;5056758;28;19924;-52
2022/07/09 03:11:06;;;;;;;;;;;25.10;89.50;;;;;;5049838;28;20604;-50
2022/07/09 03:13:33;;;;;;;;;;;25.00;89.40;;;;;;5045686;28;19925;-54
2022/07/09 03:16:01;;;;;;;;;;;25.10;89.50;;;;;;5048392;28;19921;-51
2022/07/09 03:18:29;;;;;;;;;;;25.00;89.40;;;;;;5055387;28;19924;-54
2022/07/09 03:20:56;;;;;;;;;;;25.00;89.40;;;;;;5048105;28;19945;-56
2022/07/09 03:23:23;;;;;;;;;;;25.00;89.50;;;;;;5047690;28;19975;-55
2022/07/09 03:25:50;;;;;;;;;;;25.00;89.50;;;;;;5047432;28;19925;-56
2022/07/09 03:28:18;;;;;;;;;;;25.00;89.50;;;;;;5047263;28;19931;-56
2022/07/09 03:30:45;;;;;;;;;;;25.00;89.50;;;;;;5047883;28;19936;-55
2022/07/09 03:33:13;;;;;;;;;;;25.00;89.50;;;;;;5047794;28;19932;-53
2022/07/09 03:35:40;;;;;;;;;;;25.00;89.50;;;;;;5048853;28;19924;-54
2022/07/09 03:38:07;;;;;;;;;;;25.00;89.50;;;;;;5050015;28;20412;-53
2022/07/09 03:40:34;;;;;;;;;;;25.00;89.50;;;;;;5055002;28;20061;-56
2022/07/09 03:43:02;;;;;;;;;;;25.00;89.50;;;;;;5051302;28;19924;-53
2022/07/09 03:45:29;;;;;;;;;;;25.00;89.50;;;;;;5053026;28;20283;-52
2022/07/09 03:47:56;;;;;;;;;;;25.00;89.50;;;;;;5051878;28;19931;-52
2022/07/09 03:50:23;;;;;;;;;;;25.00;89.50;;;;;;5052849;28;19921;-55
2022/07/09 03:52:50;;;;;;;;;;;25.00;89.50;;;;;;5050768;28;20288;-51
2022/07/09 03:55:18;;;;;;;;;;;25.00;89.50;;;;;;5050690;28;19929;-54
2022/07/09 03:57:45;;;;;;;;;;;25.00;89.50;;;;;;5058125;28;20426;-57
2022/07/09 04:00:12;;;;;;;;;;;25.00;89.50;;;;;;5050887;28;20287;-54
2022/07/09 04:02:39;;;;;;;;;;;25.00;89.50;;;;;;5067244;28;19935;-54
2022/07/09 04:05:07;;;;;;;;;;;25.00;89.60;;;;;;5061707;28;20382;-56
2022/07/09 04:07:34;;;;;;;;;;;24.90;89.50;;;;;;5054627;28;19924;-55
2022/07/09 04:10:02;;;;;;;;;;;25.00;89.60;;;;;;5033493;28;19924;-52
2022/07/09 04:12:29;;;;;;;;;;;25.00;89.60;;;;;;5050092;28;19924;-55
2022/07/09 04:14:56;;;;;;;;;;;25.00;89.60;;;;;;5050642;28;19920;-56
2022/07/09 04:17:23;;;;;;;;;;;24.90;89.60;;;;;;5062959;28;19925;-55
2022/07/09 04:19:50;;;;;;;;;;;25.00;89.60;;;;;;5049350;28;19921;-53
2022/07/09 04:22:18;;;;;;;;;;;24.90;89.60;;;;;;5050142;28;19935;-57
2022/07/09 04:24:45;;;;;;;;;;;24.90;89.60;;;;;;5049730;28;20315;-58
2022/07/09 04:27:12;;;;;;;;;;;24.90;89.60;;;;;;5083111;28;19931;-57
2022/07/09 04:29:39;;;;;;;;;;;24.90;89.60;;;;;;5052648;28;19920;-57
2022/07/09 04:32:07;;;;;;;;;;;24.90;89.60;;;;;;5056790;28;19925;-57
2022/07/09 04:34:34;;;;;;;;;;;24.90;89.60;;;;;;5059628;28;19950;-55
2022/07/09 04:37:01;;;;;;;;;;;24.90;89.60;;;;;;5056472;28;20400;-55
2022/07/09 04:39:28;;;;;;;;;;;24.90;89.60;;;;;;5053572;28;19925;-56
2022/07/09 04:41:55;;;;;;;;;;;24.90;89.60;;;;;;5059937;28;19924;-56
2022/07/09 04:44:22;;;;;;;;;;;24.90;89.60;;;;;;5068503;28;19924;-56
2022/07/09 04:46:50;;;;;;;;;;;24.90;89.50;;;;;;5049213;28;19932;-51
2022/07/09 04:49:17;;;;;;;;;;;24.90;89.60;;;;;;5053275;28;19961;-54
2022/07/09 04:51:44;;;;;;;;;;;24.90;89.60;;;;;;5054461;28;19932;-54
2022/07/09 04:54:11;;;;;;;;;;;24.90;89.60;;;;;;5048486;28;19925;-52
2022/07/09 04:56:38;;;;;;;;;;;24.90;89.60;;;;;;5050161;28;19925;-52
2022/07/09 04:59:06;;;;;;;;;;;24.90;89.70;;;;;;5051554;28;19925;-57
2022/07/09 05:01:33;;;;;;;;;;;24.90;89.60;;;;;;5050209;28;19924;-56
2022/07/09 05:04:00;;;;;;;;;;;24.90;89.60;;;;;;5060891;28;19927;-54
2022/07/09 05:06:27;;;;;;;;;;;24.90;89.60;;;;;;5052237;28;19944;-57
2022/07/09 05:08:54;;;;;;;;;;;24.90;89.70;;;;;;5060909;28;19920;-54
2022/07/09 05:11:21;;;;;;;;;;;24.90;89.80;;;;;;5060180;28;19947;-51
2022/07/09 05:13:49;;;;;;;;;;;24.90;89.70;;;;;;5048946;28;20577;-53
2022/07/09 05:16:16;;;;;;;;;;;24.90;89.80;;;;;;5060823;28;20490;-53
2022/07/09 05:18:43;;;;;;;;;;;24.90;89.70;;;;;;5050490;28;19925;-54
2022/07/09 05:21:10;;;;;;;;;;;24.90;89.80;;;;;;5051065;28;19924;-51
2022/07/09 05:23:37;;;;;;;;;;;24.90;89.80;;;;;;5049297;28;20403;-53
2022/07/09 05:26:05;;;;;;;;;;;24.80;89.70;;;;;;5049763;28;19928;-51
2022/07/09 05:28:32;;;;;;;;;;;24.90;89.80;;;;;;5049412;28;19947;-53
2022/07/09 05:30:59;;;;;;;;;;;24.90;89.80;;;;;;5049458;28;19924;-53
2022/07/09 05:33:47;;;;;;;;;;;24.90;89.80;;;;;;5051204;28;19928;-54
2022/07/09 05:36:17;;;;;;;;;;;24.90;89.80;;;;;;5050731;28;20443;-52
2022/07/09 05:38:45;;;;;;;;;;;24.90;89.80;;;;;;5049488;28;19924;-56
2022/07/09 05:41:14;;;;;;;;;;;24.90;89.80;;;;;;5054020;28;19924;-55
2022/07/09 05:43:41;;;;;;;;;;;24.90;89.80;;;;;;5049248;28;20380;-54
2022/07/09 05:46:09;;;;;;;;;;;24.90;89.80;;;;;;5050282;28;20293;-54
2022/07/09 05:48:36;;;;;;;;;;;24.90;89.80;;;;;;5049634;28;19920;-53
2022/07/09 05:51:04;;;;;;;;;;;24.90;89.80;;;;;;5049907;28;19935;-55
2022/07/09 05:53:31;;;;;;;;;;;24.90;89.80;;;;;;5049060;28;20419;-57
2022/07/09 05:55:58;;;;;;;;;;;24.90;89.80;;;;;;5049207;28;20388;-51
2022/07/09 05:58:26;;;;;;;;;;;24.90;89.70;;;;;;5052902;28;19924;-50
2022/07/09 06:00:53;;;;;;;;;;;24.90;89.80;;;;;;5052873;28;19925;-54
2022/07/09 06:03:20;;;;;;;;;;;24.90;89.70;;;;;;5047997;28;20316;-53
2022/07/09 06:05:47;;;;;;;;;;;24.90;89.80;;;;;;5048980;28;19928;-54
2022/07/09 06:08:14;;;;;;;;;;;24.90;89.80;;;;;;5064438;28;19925;-52
2022/07/09 06:10:42;;;;;;;;;;;24.90;89.80;;;;;;5065113;28;19939;-55
2022/07/09 06:13:09;;;;;;;;;;;25.00;89.80;;;;;;5052365;28;19920;-55
2022/07/09 06:15:36;;;;;;;;;;;25.00;89.70;;;;;;5049084;28;19921;-53
2022/07/09 06:18:03;;;;;;;;;;;25.00;89.70;;;;;;5048694;28;19925;-51
2022/07/09 06:20:31;;;;;;;;;;;25.00;89.70;;;;;;5074257;28;19928;-54
2022/07/09 06:23:06;;;;;;;;;;;24.90;89.60;;;;;;5052518;28;19924;-55
2022/07/09 06:25:33;;;;;;;;;;;25.00;89.70;;;;;;5049735;28;19924;-56
2022/07/09 06:28:00;;;;;;;;;;;25.00;90.00;;;;;;5048009;28;19928;-51
2022/07/09 06:30:27;;;;;;;;;;;25.00;89.70;;;;;;5049536;28;19963;-50
2022/07/09 06:32:54;;;;;;;;;;;25.00;89.80;;;;;;5049837;28;19928;-53
2022/07/09 06:35:22;;;;;;;;;;;24.90;89.80;;;;;;5050453;28;20398;-49
2022/07/09 06:37:49;;;;;;;;;;;24.90;89.80;;;;;;5056714;28;19932;-51
2022/07/09 06:40:16;;;;;;;;;;;24.90;89.80;;;;;;5048215;28;19925;-54
2022/07/09 06:42:43;;;;;;;;;;;24.90;89.80;;;;;;5061598;28;20339;-55
2022/07/09 06:45:19;;;;;;;;;;;24.90;89.80;;;;;;5048643;28;19924;-54
2022/07/09 06:47:46;;;;;;;;;;;24.90;89.90;;;;;;5051375;28;19940;-54
2022/07/09 06:50:13;;;;;;;;;;;24.90;89.90;;;;;;5063231;28;19935;-55
2022/07/09 06:52:40;;;;;;;;;;;24.90;89.80;;;;;;5052262;28;19928;-52
2022/07/09 06:55:08;;;;;;;;;;;24.90;89.90;;;;;;5053257;28;20778;-57
2022/07/09 06:57:36;;;;;;;;;;;24.90;89.90;;;;;;5053068;28;20392;-55
2022/07/09 07:00:04;;;;;;;;;;;24.90;90.00;;;;;;5049907;28;20403;-56
2022/07/09 07:02:32;;;;;;;;;;;24.90;90.00;;;;;;5054965;28;19932;-56
2022/07/09 07:04:59;;;;;;;;;;;24.90;90.00;;;;;;5062967;28;19925;-49
2022/07/09 07:07:26;;;;;;;;;;;24.90;90.00;;;;;;5048100;28;20388;-55
2022/07/09 07:09:53;;;;;;;;;;;25.00;90.00;;;;;;5047891;28;19924;-53
2022/07/09 07:12:20;;;;;;;;;;;25.00;90.00;;;;;;5059271;28;19924;-55
2022/07/09 07:14:47;;;;;;;;;;;25.00;90.00;;;;;;5052070;28;20381;-52
2022/07/09 07:17:15;;;;;;;;;;;25.00;90.00;;;;;;5053156;28;19932;-56
2022/07/09 07:19:42;;;;;;;;;;;25.00;90.00;;;;;;5051711;28;19925;-57
2022/07/09 07:22:09;;;;;;;;;;;25.00;90.00;;;;;;5051810;28;19940;-58
2022/07/09 07:24:36;;;;;;;;;;;25.00;90.00;;;;;;5072351;28;19943;-56
2022/07/09 07:27:03;;;;;;;;;;;25.00;90.00;;;;;;5061959;28;19940;-56
2022/07/09 07:29:30;;;;;;;;;;;25.00;90.00;;;;;;5052211;28;19928;-53
2022/07/09 07:31:58;;;;;;;;;;;25.00;90.00;;;;;;5051915;28;19929;-55
2022/07/09 07:34:26;;;;;;;;;;;25.00;90.00;;;;;;5050821;28;19925;-57
2022/07/09 07:36:53;;;;;;;;;;;25.00;90.00;;;;;;5052320;28;19931;-54
2022/07/09 07:39:24;;;;;;;;;;;25.00;90.00;;;;;;5050875;28;19932;-56
2022/07/09 07:41:52;;;;;;;;;;;25.00;90.00;;;;;;5053283;28;19928;-54
2022/07/09 07:44:19;;;;;;;;;;;25.00;90.00;;;;;;5061656;28;19943;-54
2022/07/09 07:46:46;;;;;;;;;;;25.00;90.10;;;;;;5058686;28;19932;-54
2022/07/09 07:49:13;;;;;;;;;;;25.00;90.00;;;;;;5052012;28;20415;-52
2022/07/09 07:51:42;;;;;;;;;;;25.00;90.10;;;;;;5053661;28;19967;-55
2022/07/09 07:54:09;;;;;;;;;;;25.00;90.10;;;;;;5051786;28;20367;-51
2022/07/09 07:56:39;;;;;;;;;;;25.00;90.10;;;;;;5053063;28;19928;-52
2022/07/09 07:59:07;;;;;;;;;;;25.00;90.10;;;;;;5053225;28;19920;-50
2022/07/09 08:01:34;;;;;;;;;;;25.00;90.10;;;;;;5058849;28;20019;-54
2022/07/09 08:04:02;;;;;;;;;;;25.00;90.10;;;;;;5053275;28;19925;-53
2022/07/09 08:06:29;;;;;;;;;;;25.00;90.10;;;;;;5064522;28;19925;-54
2022/07/09 08:08:57;;;;;;;;;;;25.00;90.10;;;;;;5051151;28;19924;-53
2022/07/09 08:11:24;;;;;;;;;;;25.10;90.10;;;;;;5055826;28;19921;-55
2022/07/09 08:13:51;;;;;;;;;;;25.00;90.10;;;;;;5065767;28;19920;-53
2022/07/09 08:16:19;;;;;;;;;;;25.00;90.10;;;;;;5050849;28;19943;-54
2022/07/09 08:18:47;;;;;;;;;;;25.00;90.40;;;;;;5050192;28;19952;-52
2022/07/09 08:21:15;;;;;;;;;;;25.00;90.20;;;;;;5050133;28;20411;-55
2022/07/09 08:23:51;;;;;;;;;;;25.00;90.20;;;;;;5051864;28;20451;-57
2022/07/09 08:26:22;;;;;;;;;;;25.00;90.20;;;;;;5066663;28;19932;-50
2022/07/09 08:28:50;;;;;;;;;;;25.00;90.20;;;;;;5059043;28;20358;-53
2022/07/09 08:31:18;;;;;;;;;;;25.00;90.20;;;;;;5051054;28;20353;-54
2022/07/09 08:33:45;;;;;;;;;;;25.00;90.20;;;;;;5050816;28;19920;-57
2022/07/09 08:36:13;;;;;;;;;;;25.00;90.20;;;;;;5060011;28;19924;-53
2022/07/09 08:38:40;;;;;;;;;;;25.00;90.20;;;;;;5054550;28;19924;-52
2022/07/09 08:41:08;;;;;;;;;;;25.00;90.20;;;;;;5050675;28;20641;-54
2022/07/09 08:43:36;;;;;;;;;;;25.00;90.20;;;;;;5050816;28;19925;-53
2022/07/09 08:46:03;;;;;;;;;;;25.00;90.20;;;;;;5049994;28;19925;-53
2022/07/09 08:48:33;;;;;;;;;;;25.00;90.20;;;;;;5048881;28;19921;-52
2022/07/09 08:51:01;;;;;;;;;;;25.00;90.20;;;;;;5049518;28;19921;-54
2022/07/09 08:53:29;;;;;;;;;;;25.00;90.20;;;;;;5059086;28;20029;-55
2022/07/09 08:55:57;;;;;;;;;;;25.00;90.20;;;;;;5056059;28;19932;-53
2022/07/09 08:58:24;;;;;;;;;;;25.00;90.20;;;;;;5055706;28;19947;-53
2022/07/09 09:00:51;;;;;;;;;;;25.00;90.20;;;;;;5061531;28;20295;-54
2022/07/09 09:03:19;;;;;;;;;;;25.00;90.20;;;;;;5064773;28;19928;-53
2022/07/09 09:06:00;;;;;;;;;;;25.00;90.20;;;;;;5051849;28;19925;-53
2022/07/09 09:08:27;;;;;;;;;;;25.00;90.20;;;;;;5069543;28;19935;-55
2022/07/09 09:10:54;;;;;;;;;;;25.00;90.10;;;;;;5065455;28;19924;-55
2022/07/09 09:13:21;;;;;;;;;;;25.10;90.20;;;;;;5051818;28;19921;-56
2022/07/09 09:15:48;;;;;;;;;;;25.10;90.10;;;;;;5052191;28;20360;-55
2022/07/09 09:18:15;;;;;;;;;;;25.00;90.10;;;;;;5051018;28;19932;-50
2022/07/09 09:20:46;;;;;;;;;;;25.10;90.10;;;;;;5050984;28;20019;-52
2022/07/09 09:23:16;;;;;;;;;;;25.00;90.10;;;;;;5057416;28;19937;-55
2022/07/09 09:25:44;;;;;;;;;;;25.10;90.10;;;;;;5050970;28;19932;-56
2022/07/09 09:28:14;;;;;;;;;;;25.10;90.10;;;;;;5051038;28;20020;-58
2022/07/09 09:30:43;;;;;;;;;;;25.10;90.10;;;;;;5051419;28;20336;-55
2022/07/09 09:33:14;;;;;;;;;;;25.10;90.10;;;;;;5052192;28;20485;-56
2022/07/09 09:35:42;;;;;;;;;;;25.10;90.10;;;;;;5050218;28;19925;-55
2022/07/09 09:38:09;;;;;;;;;;;25.00;90.10;;;;;;5056811;28;19947;-56
2022/07/09 09:40:37;;;;;;;;;;;25.10;90.10;;;;;;5053188;28;19921;-55
2022/07/09 09:43:04;;;;;;;;;;;25.10;90.10;;;;;;5056149;28;20281;-56
2022/07/09 09:45:32;;;;;;;;;;;25.10;90.10;;;;;;5053129;28;19950;-55
2022/07/09 09:48:00;;;;;;;;;;;25.10;90.10;;;;;;5050691;28;19924;-56
2022/07/09 09:50:27;;;;;;;;;;;25.20;90.10;;;;;;5050737;28;19951;-55
2022/07/09 09:52:55;;;;;;;;;;;25.10;90.10;;;;;;5052846;28;19921;-57
2022/07/09 09:55:22;;;;;;;;;;;25.10;90.10;;;;;;5052171;28;19928;-53
2022/07/09 09:57:51;;;;;;;;;;;25.10;90.10;;;;;;5050505;28;20359;-52
2022/07/09 10:00:19;;;;;;;;;;;25.10;90.10;;;;;;5057112;28;19920;-51
2022/07/09 10:02:47;;;;;;;;;;;25.10;90.10;;;;;;5050468;28;20407;-53
2022/07/09 10:05:14;;;;;;;;;;;25.10;90.10;;;;;;5054767;28;19924;-52
2022/07/09 10:07:42;;;;;;;;;;;25.10;90.10;;;;;;5052878;28;19928;-56
2022/07/09 10:10:16;;;;;;;;;;;25.10;90.10;;;;;;5048393;28;19925;-54
2022/07/09 10:12:44;;;;;;;;;;;25.20;90.10;;;;;;5056079;28;19936;-55
2022/07/09 10:15:22;;;;;;;;;;;25.20;90.10;;;;;;5052821;28;19932;-55
2022/07/09 10:17:49;;;;;;;;;;;25.10;90.10;;;;;;5046970;28;19935;-54
2022/07/09 10:20:16;;;;;;;;;;;25.10;90.10;;;;;;5049034;28;19932;-56
2022/07/09 10:22:45;;;;;;;;;;;25.20;90.10;;;;;;5048633;28;19931;-55
2022/07/09 10:25:14;;;;;;;;;;;25.10;90.10;;;;;;5047342;28;19936;-49
2022/07/09 10:27:45;;;;;;;;;;;25.10;90.10;;;;;;5047584;28;19924;-55
2022/07/09 10:30:25;;;;;;;;;;;25.10;90.10;;;;;;5047132;28;19931;-55
2022/07/09 10:33:03;;;;;;;;;;;25.20;90.20;;;;;;5048760;28;19924;-54
2022/07/09 10:35:30;;;;;;;;;;;25.10;90.10;;;;;;5048983;28;20359;-55
2022/07/09 10:37:58;;;;;;;;;;;25.10;90.10;;;;;;5048945;28;19931;-52
2022/07/09 10:40:27;;;;;;;;;;;25.20;90.20;;;;;;5048390;28;20654;-55
2022/07/09 10:42:58;;;;;;;;;;;25.20;90.20;;;;;;5047811;28;20303;-55
2022/07/09 10:45:27;;;;;;;;;;;25.20;90.20;;;;;;5058547;28;19925;-53
2022/07/09 10:47:55;;;;;;;;;;;25.20;90.20;;;;;;5048362;28;19928;-57
2022/07/09 10:50:23;;;;;;;;;;;25.20;90.10;;;;;;5046795;28;19944;-54
2022/07/09 10:52:50;;;;;;;;;;;25.10;90.10;;;;;;5048036;28;19928;-55
2022/07/09 10:55:22;;;;;;;;;;;25.20;90.10;;;;;;5047480;28;19937;-53
2022/07/09 10:57:49;;;;;;;;;;;25.20;90.20;;;;;;5060398;28;19939;-54
2022/07/09 11:00:18;;;;;;;;;;;25.20;90.20;;;;;;5060998;28;19925;-50
2022/07/09 11:02:52;;;;;;;;;;;25.20;90.20;;;;;;5046788;28;19924;-55
2022/07/09 11:05:19;;;;;;;;;;;25.20;90.20;;;;;;5046988;28;19928;-55
2022/07/09 11:08:02;;;;;;;;;;;25.10;90.10;;;;;;5048149;28;20327;-53
2022/07/09 11:10:30;;;;;;;;;;;25.20;90.20;;;;;;5053109;28;19932;-56
2022/07/09 11:12:59;;;;;;;;;;;25.20;90.20;;;;;;5054907;28;19924;-55
2022/07/09 11:15:30;;;;;;;;;;;25.20;90.20;;;;;;5050443;28;19935;-55
2022/07/09 11:17:59;;;;;;;;;;;25.20;90.20;;;;;;5045656;28;19925;-52
2022/07/09 11:20:27;;;;;;;;;;;25.20;90.20;;;;;;5046909;28;19924;-56
2022/07/09 11:22:56;;;;;;;;;;;25.20;90.20;;;;;;5051818;28;19931;-54
2022/07/09 11:25:25;;;;;;;;;;;25.20;90.20;;;;;;5048054;28;19920;-54
2022/07/09 11:27:54;;;;;;;;;;;25.20;90.10;;;;;;5047704;28;19924;-51
2022/07/09 11:30:22;;;;;;;;;;;25.20;90.10;;;;;;5048130;28;19925;-53
2022/07/09 11:32:50;;;;;;;;;;;25.20;90.10;;;;;;5045658;28;19925;-51
2022/07/09 11:35:33;;;;;;;;;;;25.20;90.10;;;;;;5061810;28;19935;-55
2022/07/09 11:38:03;;;;;;;;;;;25.20;90.10;;;;;;5046863;28;19944;-57
2022/07/09 11:40:30;;;;;;;;;;;25.30;90.10;;;;;;5057506;28;19924;-56
2022/07/09 11:42:57;;;;;;;;;;;25.20;90.10;;;;;;5057991;28;19932;-57
2022/07/09 11:45:26;;;;;;;;;;;25.30;90.20;;;;;;5048860;28;19921;-55
2022/07/09 11:48:03;;;;;;;;;;;25.20;90.20;;;;;;5047873;28;19924;-55
2022/07/09 11:50:30;;;;;;;;;;;25.20;90.20;;;;;;5049528;28;19925;-53
2022/07/09 11:52:57;;;;;;;;;;;25.20;90.20;;;;;;5048318;28;19936;-51
2022/07/09 11:55:30;;;;;;;;;;;25.20;90.10;;;;;;5064695;28;19932;-52
2022/07/09 11:58:08;;;;;;;;;;;25.30;90.20;;;;;;5064550;28;19921;-53
2022/07/09 12:00:39;;;;;;;;;;;25.20;90.20;;;;;;5056990;28;19925;-53
2022/07/09 12:03:06;;;;;;;;;;;25.20;90.20;;;;;;5050254;28;19925;-58
2022/07/09 12:05:39;;;;;;;;;;;25.20;90.20;;;;;;5060811;28;19925;-53
2022/07/09 12:08:07;;;;;;;;;;;25.30;90.20;;;;;;5053640;28;20388;-55
2022/07/09 12:10:35;;;;;;;;;;;25.20;90.20;;;;;;5055307;28;19943;-51
2022/07/09 12:13:03;;;;;;;;;;;25.20;90.20;;;;;;5055590;28;19925;-51
2022/07/09 12:15:30;;;;;;;;;;;25.20;90.30;;;;;;5055508;28;19929;-53
2022/07/09 12:17:59;;;;;;;;;;;25.20;90.30;;;;;;5056659;28;19962;-52
2022/07/09 12:20:28;;;;;;;;;;;25.20;90.30;;;;;;5053954;28;19933;-56
2022/07/09 12:22:55;;;;;;;;;;;25.20;90.20;;;;;;5055601;28;20281;-52
2022/07/09 12:25:23;;;;;;;;;;;25.20;90.20;;;;;;5051237;28;20295;-57
2022/07/09 12:27:50;;;;;;;;;;;25.20;90.20;;;;;;5051190;28;20301;-53
2022/07/09 12:30:17;;;;;;;;;;;25.30;90.20;;;;;;5051664;28;19940;-53
2022/07/09 12:32:45;;;;;;;;;;;25.30;90.20;;;;;;5048546;28;19932;-56
2022/07/09 12:35:12;;;;;;;;;;;25.30;90.20;;;;;;5051188;28;19921;-59
2022/07/09 12:37:39;;;;;;;;;;;25.30;90.10;;;;;;5065009;28;19983;-54
2022/07/09 12:40:07;;;;;;;;;;;25.30;90.10;;;;;;5069841;28;20314;-56
2022/07/09 12:42:35;;;;;;;;;;;25.40;90.20;;;;;;5052004;28;19925;-54
2022/07/09 12:45:02;;;;;;;;;;;25.40;90.10;;;;;;5048128;28;19925;-56
2022/07/09 12:47:37;;;;;;;;;;;25.40;90.10;;;;;;5059992;28;19931;-50
2022/07/09 12:50:04;;;;;;;;;;;25.40;90.10;;;;;;5050350;28;19924;-55
2022/07/09 12:52:32;;;;;;;;;;;25.40;90.10;;;;;;5050503;28;20386;-51
2022/07/09 12:55:00;;;;;;;;;;;25.40;90.10;;;;;;5050380;28;19924;-52
2022/07/09 12:57:28;;;;;;;;;;;25.40;90.10;;;;;;5060022;28;20227;-51
2022/07/09 12:59:55;;;;;;;;;;;25.40;90.10;;;;;;5058745;28;19928;-56
2022/07/09 13:02:22;;;;;;;;;;;25.40;90.10;;;;;;5050929;28;19940;-53
2022/07/09 13:04:52;;;;;;;;;;;25.40;90.10;;;;;;5049577;28;19924;-51
2022/07/09 13:07:19;;;;;;;;;;;25.40;90.00;;;;;;5050211;28;19925;-54
2022/07/09 13:09:46;;;;;;;;;;;25.40;90.00;;;;;;5048597;28;20387;-52
2022/07/09 13:12:14;;;;;;;;;;;25.50;90.00;;;;;;5061913;28;19929;-55
2022/07/09 13:14:41;;;;;;;;;;;25.50;90.00;;;;;;5052989;28;20028;-55
2022/07/09 13:17:08;;;;;;;;;;;25.50;90.00;;;;;;5049706;28;20260;-55
2022/07/09 13:19:56;;;;;;;;;;;25.50;90.00;;;;;;5064715;28;19924;-54
2022/07/09 13:22:23;;;;;;;;;;;25.50;90.00;;;;;;5050550;28;19924;-50
2022/07/09 13:24:50;;;;;;;;;;;25.50;90.00;;;;;;5049668;28;20310;-54
2022/07/09 13:27:18;;;;;;;;;;;25.50;90.00;;;;;;5054635;28;19936;-55
2022/07/09 13:29:47;;;;;;;;;;;25.50;90.00;;;;;;5048300;28;19925;-53
2022/07/09 13:32:14;;;;;;;;;;;25.40;90.00;;;;;;5056370;28;19924;-52
2022/07/09 13:34:51;;;;;;;;;;;25.40;90.10;;;;;;5055329;28;20416;-55
2022/07/09 13:37:19;;;;;;;;;;;25.40;90.10;;;;;;5050391;28;19932;-53
2022/07/09 13:39:46;;;;;;;;;;;25.40;90.10;;;;;;5047064;28;19952;-57
2022/07/09 13:42:14;;;;;;;;;;;25.50;90.10;;;;;;5050612;28;19931;-53
2022/07/09 13:44:41;;;;;;;;;;;25.50;90.00;;;;;;5048085;28;19932;-53
2022/07/09 13:47:08;;;;;;;;;;;25.60;90.00;;;;;;5071991;28;19924;-52
2022/07/09 13:49:35;;;;;;;;;;;25.60;90.00;;;;;;5055707;28;20433;-55
2022/07/09 13:52:02;;;;;;;;;;;25.60;89.90;;;;;;5048385;28;19924;-56
2022/07/09 13:54:30;;;;;;;;;;;25.60;89.90;;;;;;5047793;28;19992;-56
2022/07/09 13:56:57;;;;;;;;;;;25.60;89.90;;;;;;5050424;28;19928;-55
2022/07/09 13:59:24;;;;;;;;;;;25.60;89.90;;;;;;5052733;28;20296;-58
2022/07/09 14:01:51;;;;;;;;;;;25.60;89.90;;;;;;5053261;28;19947;-53
2022/07/09 14:04:19;;;;;;;;;;;25.50;90.00;;;;;;5061658;28;20336;-55
2022/07/09 14:06:46;;;;;;;;;;;25.50;90.00;;;;;;5053722;28;19931;-50
2022/07/09 14:09:20;;;;;;;;;;;25.50;90.00;;;;;;5065792;28;20245;-54
2022/07/09 14:11:47;;;;;;;;;;;25.50;90.00;;;;;;5053726;28;20296;-53
2022/07/09 14:14:14;;;;;;;;;;;25.50;90.00;;;;;;5048011;28;19925;-51
2022/07/09 14:16:42;;;;;;;;;;;25.50;90.10;;;;;;5058261;28;19939;-51
2022/07/09 14:19:09;;;;;;;;;;;25.50;90.10;;;;;;5048835;28;19992;-52
2022/07/09 14:21:36;;;;;;;;;;;25.50;90.00;;;;;;5055280;28;19928;-52